createdAt,value
2022-10-18T00:00:31.730Z,20.30
2022-10-18T00:02:58.250Z,19.45
2022-10-18T00:05:26.254Z,16.48
2022-10-18T00:07:52.828Z,23.70
2022-10-18T00:10:19.494Z,16.67
2022-10-18T00:15:18.389Z,16.50
2022-10-18T00:17:45.187Z,15.68
2022-10-18T00:20:12.190Z,19.48
2022-10-18T00:22:41.149Z,13.85
2022-10-18T00:25:09.179Z,18.55
2022-10-18T00:27:35.814Z,17.38
2022-10-18T00:30:02.417Z,17.70
2022-10-18T00:32:29.250Z,12.70
2022-10-18T00:34:55.995Z,16.65
2022-10-18T00:37:22.598Z,17.42
2022-10-18T00:42:19.178Z,18.35
2022-10-18T00:45:15.915Z,17.85
2022-10-18T00:47:45.255Z,19.23
2022-10-18T00:50:12.833Z,18.35
2022-10-18T00:52:42.145Z,18.25
2022-10-18T00:55:10.930Z,19.88
2022-10-18T00:57:40.107Z,19.02
2022-10-18T01:00:08.052Z,19.63
2022-10-18T01:02:34.596Z,19.38
2022-10-18T01:05:01.127Z,18.98
2022-10-18T01:07:41.944Z,18.00
2022-10-18T01:10:21.403Z,22.30
2022-10-18T01:12:57.386Z,21.48
2022-10-18T01:15:27.699Z,24.52
2022-10-18T01:18:03.588Z,26.75
2022-10-18T01:21:04.367Z,21.55
2022-10-18T01:23:54.859Z,19.77
2022-10-18T01:26:35.750Z,17.50
2022-10-18T01:29:11.747Z,18.75
2022-10-18T01:31:46.579Z,30.08
2022-10-18T01:34:17.201Z,18.30
2022-10-18T01:36:47.759Z,21.08
2022-10-18T01:39:19.644Z,15.02
2022-10-18T01:41:49.025Z,16.70
2022-10-18T01:44:21.168Z,15.90
2022-10-18T01:46:50.959Z,16.63
2022-10-18T01:49:17.495Z,19.67
2022-10-18T01:51:44.029Z,22.55
2022-10-18T01:54:15.323Z,15.13
2022-10-18T01:56:47.606Z,21.77
2022-10-18T01:59:46.719Z,20.40
2022-10-18T02:02:24.864Z,17.98
2022-10-18T02:04:59.662Z,17.77
2022-10-18T02:07:32.539Z,21.17
2022-10-18T02:10:08.599Z,19.58
2022-10-18T02:12:38.695Z,23.92
2022-10-18T02:15:07.633Z,18.48
2022-10-18T02:17:36.108Z,18.63
2022-10-18T02:20:05.480Z,17.58
2022-10-18T02:22:33.862Z,21.70
2022-10-18T02:25:05.694Z,23.77
2022-10-18T02:27:32.430Z,18.20
2022-10-18T02:29:59.164Z,22.00
2022-10-18T02:32:32.723Z,24.42
2022-10-18T02:35:04.691Z,19.95
2022-10-18T02:37:35.324Z,32.45
2022-10-18T02:40:05.053Z,24.55
2022-10-18T02:42:36.249Z,29.98
2022-10-18T02:45:03.367Z,24.75
2022-10-18T02:47:30.320Z,26.65
2022-10-18T02:49:57.302Z,33.80
2022-10-18T02:52:25.334Z,30.52
2022-10-18T02:54:51.844Z,19.63
2022-10-18T02:57:18.389Z,30.40
2022-10-18T02:59:44.956Z,22.48
2022-10-18T03:02:11.588Z,35.00
2022-10-18T03:04:38.133Z,26.80
2022-10-18T03:07:04.898Z,41.72
2022-10-18T03:09:32.833Z,33.03
2022-10-18T03:11:59.392Z,28.90
2022-10-18T03:14:25.917Z,19.65
2022-10-18T03:16:52.478Z,29.08
2022-10-18T03:19:19.143Z,28.08
2022-10-18T03:21:45.729Z,30.00
2022-10-18T03:24:12.314Z,31.02
2022-10-18T03:26:40.167Z,21.52
2022-10-18T03:29:06.720Z,30.83
2022-10-18T03:31:33.385Z,22.77
2022-10-18T03:33:59.915Z,22.15
2022-10-18T03:36:26.432Z,26.63
2022-10-18T03:38:53.030Z,20.52
2022-10-18T03:41:19.702Z,21.75
2022-10-18T03:43:47.826Z,16.30
2022-10-18T03:46:14.408Z,19.45
2022-10-18T03:48:40.965Z,22.77
2022-10-18T03:51:07.495Z,18.83
2022-10-18T03:53:34.119Z,19.48
2022-10-18T03:56:00.630Z,23.25
2022-10-18T03:58:27.215Z,20.60
2022-10-18T04:00:55.433Z,19.90
2022-10-18T04:03:22.960Z,21.67
2022-10-18T04:05:49.998Z,21.67
2022-10-18T04:08:17.170Z,30.17
2022-10-18T04:10:44.337Z,19.00
2022-10-18T04:13:10.889Z,25.63
2022-10-18T04:15:37.448Z,20.95
2022-10-18T04:18:05.391Z,20.08
2022-10-18T04:20:31.898Z,18.17
2022-10-18T04:22:58.441Z,16.52
2022-10-18T04:25:25.010Z,26.85
2022-10-18T04:27:51.585Z,23.88
2022-10-18T04:30:18.139Z,20.48
2022-10-18T04:32:44.679Z,17.25
2022-10-18T04:35:12.623Z,23.63
2022-10-18T04:37:39.131Z,18.98
2022-10-18T04:40:06.875Z,29.98
2022-10-18T04:42:33.427Z,20.45
2022-10-18T04:44:59.923Z,31.45
2022-10-18T04:47:26.470Z,29.67
2022-10-18T04:49:52.974Z,25.90
2022-10-18T04:52:20.868Z,22.33
2022-10-18T04:54:47.393Z,22.05
2022-10-18T04:57:14.041Z,39.13
2022-10-18T04:59:40.534Z,31.67
2022-10-18T05:02:07.060Z,32.40
2022-10-18T05:04:33.704Z,31.88
2022-10-18T05:07:00.238Z,53.10
2022-10-18T05:09:28.104Z,50.20
2022-10-18T05:11:54.628Z,48.42
2022-10-18T05:14:21.154Z,72.28
2022-10-18T05:16:47.666Z,30.15
2022-10-18T05:19:14.183Z,64.75
2022-10-18T05:21:40.680Z,68.40
2022-10-18T05:24:07.259Z,71.90
2022-10-18T05:26:35.110Z,59.80
2022-10-18T05:29:01.726Z,54.83
2022-10-18T05:31:28.293Z,23.90
2022-10-18T05:33:54.848Z,24.67
2022-10-18T05:36:21.400Z,39.40
2022-10-18T05:38:47.997Z,11.43
2022-10-18T05:41:14.537Z,12.75
2022-10-18T05:43:42.415Z,10.52
2022-10-18T05:46:14.658Z,16.60
2022-10-18T05:48:42.120Z,10.63
2022-10-18T05:51:08.684Z,11.10
2022-10-18T05:53:37.567Z,11.52
2022-10-18T05:56:05.713Z,9.38
2022-10-18T05:58:32.366Z,14.27
2022-10-18T06:01:00.715Z,21.58
2022-10-18T06:03:27.273Z,51.80
2022-10-18T06:05:58.448Z,19.17
2022-10-18T06:08:25.089Z,18.33
2022-10-18T06:10:51.618Z,14.05
2022-10-18T06:13:18.169Z,14.75
2022-10-18T06:15:44.668Z,17.23
2022-10-18T06:18:12.517Z,51.20
2022-10-18T06:20:39.031Z,14.45
2022-10-18T06:23:05.568Z,13.32
2022-10-18T06:25:32.098Z,14.00
2022-10-18T06:27:58.624Z,15.90
2022-10-18T06:30:25.202Z,17.15
2022-10-18T06:32:51.796Z,15.55
2022-10-18T06:35:19.647Z,13.70
2022-10-18T06:37:46.180Z,12.55
2022-10-18T06:40:12.832Z,14.55
2022-10-18T06:42:39.368Z,17.38
2022-10-18T06:45:07.125Z,12.55
2022-10-18T06:47:33.656Z,13.73
2022-10-18T06:50:00.162Z,18.45
2022-10-18T06:52:28.054Z,23.23
2022-10-18T06:54:54.553Z,19.52
2022-10-18T06:57:21.263Z,21.98
2022-10-18T06:59:47.792Z,21.90
2022-10-18T07:02:15.497Z,29.38
2022-10-18T07:04:42.016Z,24.20
2022-10-18T07:07:08.603Z,26.67
2022-10-18T07:09:36.492Z,32.28
2022-10-18T07:12:03.250Z,47.50
2022-10-18T07:14:29.803Z,63.78
2022-10-18T07:16:59.075Z,52.20
2022-10-18T07:19:25.701Z,43.38
2022-10-18T07:21:52.205Z,38.05
2022-10-18T07:24:18.737Z,29.85
2022-10-18T07:26:46.627Z,41.72
2022-10-18T07:29:13.178Z,36.85
2022-10-18T07:31:39.905Z,33.13
2022-10-18T07:34:07.655Z,32.45
2022-10-18T07:36:34.683Z,29.73
2022-10-18T07:39:01.205Z,45.40
2022-10-18T07:41:27.866Z,37.53
2022-10-18T07:43:55.746Z,32.97
2022-10-18T07:46:22.909Z,29.58
2022-10-18T07:48:49.636Z,26.08
2022-10-18T07:51:16.867Z,50.95
2022-10-18T07:53:43.546Z,32.28
2022-10-18T07:56:12.428Z,31.13
2022-10-18T07:58:39.247Z,32.15
2022-10-18T08:01:08.751Z,34.65
2022-10-18T08:03:36.912Z,53.33
2022-10-18T08:06:04.947Z,36.72
2022-10-18T08:08:31.831Z,31.30
2022-10-18T08:11:02.854Z,82.53
2022-10-18T08:13:29.419Z,46.03
2022-10-18T08:15:59.963Z,60.63
2022-10-18T08:18:28.042Z,61.47
2022-10-18T08:20:54.610Z,49.60
2022-10-18T08:23:21.144Z,57.40
2022-10-18T08:25:47.787Z,54.55
2022-10-18T08:28:14.322Z,64.78
2022-10-18T08:30:40.895Z,67.65
2022-10-18T08:33:07.412Z,74.63
2022-10-18T08:35:35.302Z,54.20
2022-10-18T08:38:02.292Z,54.42
2022-10-18T08:40:28.966Z,49.45
2022-10-18T08:43:04.606Z,48.30
2022-10-18T08:45:43.580Z,48.67
2022-10-18T08:48:19.990Z,44.00
2022-10-18T08:50:49.977Z,57.40
2022-10-18T08:53:23.070Z,46.40
2022-10-18T08:55:54.692Z,47.80
2022-10-18T08:58:23.119Z,53.08
2022-10-18T09:01:02.561Z,47.70
2022-10-18T09:03:53.211Z,47.08
2022-10-18T09:06:27.898Z,43.95
2022-10-18T09:09:07.405Z,46.88
2022-10-18T09:11:47.456Z,47.17
2022-10-18T09:14:39.119Z,40.33
2022-10-18T09:17:16.242Z,38.20
2022-10-18T09:22:48.925Z,38.63
2022-10-18T09:25:19.110Z,49.53
2022-10-18T09:27:52.400Z,35.35
2022-10-18T09:30:26.571Z,32.42
2022-10-18T09:33:01.174Z,33.85
2022-10-18T09:35:33.826Z,32.90
2022-10-18T09:38:09.204Z,34.45
2022-10-18T09:40:44.260Z,35.95
2022-10-18T09:43:15.936Z,36.88
2022-10-18T09:45:44.774Z,33.15
2022-10-18T09:48:17.181Z,36.17
2022-10-18T09:50:48.769Z,38.00
2022-10-18T09:53:23.290Z,37.50
2022-10-18T09:56:01.013Z,36.65
2022-10-18T09:58:39.314Z,41.95
2022-10-18T10:01:07.250Z,40.47
2022-10-18T10:03:34.129Z,47.53
2022-10-18T10:06:16.294Z,45.22
2022-10-18T10:08:49.271Z,45.85
2022-10-18T10:11:32.230Z,36.10
2022-10-18T10:14:08.378Z,41.97
2022-10-18T10:16:43.328Z,38.38
2022-10-18T10:19:17.091Z,39.08
2022-10-18T10:21:43.875Z,35.47
2022-10-18T10:24:21.010Z,39.03
2022-10-18T10:26:47.650Z,36.30
2022-10-18T10:29:47.164Z,32.88
2022-10-18T10:32:16.463Z,35.00
2022-10-18T10:34:44.826Z,33.45
2022-10-18T10:37:25.805Z,30.27
2022-10-18T10:40:25.147Z,24.13
2022-10-18T10:43:08.819Z,24.60
2022-10-18T10:45:58.318Z,22.65
2022-10-18T10:48:27.832Z,24.63
2022-10-18T10:51:01.855Z,23.48
2022-10-18T10:53:32.405Z,23.30
2022-10-18T10:56:00.902Z,27.88
2022-10-18T10:58:33.496Z,26.17
2022-10-18T11:01:18.249Z,25.65
2022-10-18T11:03:47.031Z,23.58
2022-10-18T11:06:31.687Z,23.98
2022-10-18T11:09:01.287Z,25.05
2022-10-18T11:11:33.472Z,24.35
2022-10-18T11:14:25.825Z,23.08
2022-10-18T11:17:01.990Z,23.55
2022-10-18T11:19:38.094Z,20.15
2022-10-18T11:22:09.464Z,23.98
2022-10-18T11:24:36.382Z,21.30
2022-10-18T11:27:10.859Z,15.77
2022-10-18T11:29:47.999Z,16.58
2022-10-18T11:32:24.865Z,21.88
2022-10-18T11:35:07.409Z,17.48
2022-10-18T11:37:51.518Z,20.58
2022-10-18T11:40:38.798Z,18.10
2022-10-18T11:43:14.530Z,16.48
2022-10-18T11:45:47.822Z,17.42
2022-10-18T11:48:31.716Z,15.15
2022-10-18T11:51:04.508Z,17.27
2022-10-18T11:53:38.512Z,16.95
2022-10-18T11:56:16.378Z,15.65
2022-10-18T11:58:59.880Z,16.40
2022-10-18T12:01:32.884Z,14.10
2022-10-18T12:04:04.810Z,18.25
2022-10-18T12:06:34.766Z,18.95
2022-10-18T12:09:03.944Z,19.42
2022-10-18T12:11:33.825Z,22.05
2022-10-18T12:14:03.671Z,17.95
2022-10-18T12:16:50.603Z,13.48
2022-10-18T12:19:23.706Z,17.77
2022-10-18T12:21:55.228Z,17.58
2022-10-18T12:24:25.431Z,18.15
2022-10-18T12:26:57.732Z,18.77
2022-10-18T12:29:31.282Z,19.08
2022-10-18T12:32:01.697Z,20.38
2022-10-18T12:34:33.737Z,20.67
2022-10-18T12:37:14.506Z,20.52
2022-10-18T12:40:05.470Z,17.98
2022-10-18T12:42:33.556Z,19.00
2022-10-18T12:45:04.553Z,22.05
2022-10-18T12:47:32.294Z,22.65
2022-10-18T12:50:01.036Z,23.15
2022-10-18T12:52:29.116Z,20.00
2022-10-18T12:55:06.757Z,18.35
2022-10-18T12:58:02.170Z,21.90
2022-10-18T13:01:02.144Z,23.00
2022-10-18T13:03:38.639Z,23.73
2022-10-18T13:06:06.792Z,22.80
2022-10-18T13:08:40.341Z,21.08
2022-10-18T13:11:33.001Z,19.10
2022-10-18T13:14:21.360Z,21.88
2022-10-18T13:16:55.654Z,23.10
2022-10-18T13:19:30.181Z,39.15
2022-10-18T13:22:13.234Z,24.38
2022-10-18T13:24:45.250Z,28.40
2022-10-18T13:27:35.621Z,27.70
2022-10-18T13:30:26.385Z,31.77
2022-10-18T13:33:03.858Z,28.13
2022-10-18T13:35:51.847Z,26.13
2022-10-18T13:38:36.618Z,29.60
2022-10-18T13:41:05.398Z,27.85
2022-10-18T13:44:09.017Z,30.33
2022-10-18T13:47:18.240Z,29.38
2022-10-18T13:49:59.468Z,27.23
2022-10-18T13:52:42.171Z,26.17
2022-10-18T13:55:32.283Z,29.70
2022-10-18T13:58:08.091Z,28.80
2022-10-18T14:00:52.353Z,28.13
2022-10-18T14:03:56.189Z,31.40
2022-10-18T14:06:24.859Z,30.65
2022-10-18T14:08:58.521Z,25.67
2022-10-18T14:11:30.539Z,32.28
2022-10-18T14:14:04.374Z,26.02
2022-10-18T14:16:37.054Z,28.58
2022-10-18T14:19:16.176Z,24.17
2022-10-18T14:21:53.474Z,26.30
2022-10-18T14:24:23.194Z,21.25
2022-10-18T14:27:11.501Z,29.45
2022-10-18T14:29:38.576Z,24.08
2022-10-18T14:32:09.393Z,24.45
2022-10-18T14:34:36.322Z,25.42
2022-10-18T14:37:04.320Z,32.30
2022-10-18T14:39:30.999Z,24.75
2022-10-18T14:41:58.175Z,24.02
2022-10-18T14:44:27.184Z,24.42
2022-10-18T14:47:01.321Z,18.73
2022-10-18T14:49:28.608Z,16.50
2022-10-18T14:51:58.187Z,11.68
2022-10-18T14:54:32.023Z,15.20
2022-10-18T14:56:59.775Z,8.93
2022-10-18T14:59:28.951Z,8.30
2022-10-18T15:01:58.468Z,15.90
2022-10-18T15:04:28.664Z,13.23
2022-10-18T15:06:55.825Z,8.80
2022-10-18T15:09:23.947Z,14.15
2022-10-18T15:11:52.505Z,11.07
2022-10-18T15:14:20.274Z,9.68
2022-10-18T15:16:50.145Z,11.63
2022-10-18T15:19:30.058Z,9.52
2022-10-18T15:22:19.771Z,14.07
2022-10-18T15:24:45.280Z,10.93
2022-10-18T15:27:20.776Z,9.63
2022-10-18T15:29:47.483Z,11.93
2022-10-18T15:32:19.442Z,12.55
2022-10-18T15:34:46.112Z,10.15
2022-10-18T15:37:30.722Z,13.50
2022-10-18T15:40:17.638Z,12.45
2022-10-18T15:42:45.799Z,11.05
2022-10-18T15:45:30.180Z,8.48
2022-10-18T15:47:59.062Z,11.23
2022-10-18T15:50:37.692Z,11.63
2022-10-18T15:53:31.124Z,12.60
2022-10-18T15:55:59.630Z,11.02
2022-10-18T15:58:29.450Z,9.13
2022-10-18T16:00:58.909Z,12.88
2022-10-18T16:03:25.974Z,15.45
2022-10-18T16:05:58.051Z,18.70
2022-10-18T16:08:26.774Z,13.57
2022-10-18T16:10:53.339Z,17.20
2022-10-18T16:13:20.030Z,21.40
2022-10-18T16:15:47.953Z,20.70
2022-10-18T16:18:16.821Z,15.43
2022-10-18T16:20:43.832Z,21.65
2022-10-18T16:23:16.603Z,17.58
2022-10-18T16:25:43.283Z,13.25
2022-10-18T16:28:13.364Z,11.38
2022-10-18T16:30:39.952Z,13.82
2022-10-18T16:33:07.848Z,12.77
2022-10-18T16:35:34.653Z,13.57
2022-10-18T16:38:01.231Z,16.80
2022-10-18T16:40:28.037Z,15.10
2022-10-18T16:42:54.691Z,18.17
2022-10-18T16:45:21.242Z,12.93
2022-10-18T16:47:47.872Z,10.52
2022-10-18T16:50:17.836Z,15.48
2022-10-18T16:52:44.745Z,14.70
2022-10-18T16:55:11.686Z,16.92
2022-10-18T16:57:38.220Z,11.40
2022-10-18T17:00:05.427Z,11.75
2022-10-18T17:02:32.172Z,11.60
2022-10-18T17:04:58.921Z,17.42
2022-10-18T17:07:26.778Z,30.40
2022-10-18T17:09:53.337Z,23.52
2022-10-18T17:12:19.852Z,21.33
2022-10-18T17:14:46.389Z,20.73
2022-10-18T17:17:12.950Z,20.65
2022-10-18T17:19:39.507Z,24.77
2022-10-18T17:22:06.043Z,21.50
2022-10-18T17:24:34.001Z,24.90
2022-10-18T17:27:00.579Z,14.43
2022-10-18T17:29:27.202Z,11.23
2022-10-18T17:31:53.727Z,17.65
2022-10-18T17:34:21.338Z,9.93
2022-10-18T17:36:48.157Z,9.43
2022-10-18T17:39:14.697Z,17.27
2022-10-18T17:41:42.597Z,16.13
2022-10-18T17:44:09.137Z,13.27
2022-10-18T17:46:35.683Z,14.65
2022-10-18T17:49:02.475Z,18.80
2022-10-18T17:51:29.168Z,9.45
2022-10-18T17:53:55.736Z,14.07
2022-10-18T17:56:22.264Z,16.42
2022-10-18T17:58:51.696Z,16.08
2022-10-18T18:01:21.018Z,15.68
2022-10-18T18:03:47.606Z,16.35
2022-10-18T18:06:19.766Z,17.63
2022-10-18T18:08:47.319Z,14.45
2022-10-18T18:11:14.578Z,12.73
2022-10-18T18:13:41.192Z,19.15
2022-10-18T18:16:14.252Z,15.77
2022-10-18T18:18:41.596Z,18.25
2022-10-18T18:21:08.206Z,15.88
2022-10-18T18:23:34.751Z,15.43
2022-10-18T18:26:01.307Z,22.27
2022-10-18T18:28:27.913Z,17.17
2022-10-18T18:30:54.702Z,23.52
2022-10-18T18:33:22.653Z,14.88
2022-10-18T18:35:58.768Z,15.80
2022-10-18T18:38:26.140Z,12.93
2022-10-18T18:41:03.568Z,15.25
2022-10-18T18:43:30.142Z,12.35
2022-10-18T18:45:56.681Z,12.25
2022-10-18T18:48:26.219Z,19.77
2022-10-18T18:50:52.946Z,19.25
2022-10-18T18:53:19.712Z,25.58
2022-10-18T18:55:46.549Z,19.05
2022-10-18T18:58:13.093Z,19.15
2022-10-18T19:00:43.609Z,23.17
2022-10-18T19:03:12.160Z,19.75
2022-10-18T19:05:40.102Z,17.38
2022-10-18T19:08:06.663Z,14.48
2022-10-18T19:10:33.281Z,22.73
2022-10-18T19:12:59.855Z,18.50
2022-10-18T19:15:26.510Z,11.65
2022-10-18T19:17:53.059Z,14.38
2022-10-18T19:20:19.823Z,14.20
2022-10-18T19:22:47.799Z,13.98
2022-10-18T19:25:14.445Z,10.27
2022-10-18T19:27:41.003Z,11.10
2022-10-18T19:30:10.710Z,26.95
2022-10-18T19:32:37.245Z,19.17
2022-10-18T19:35:04.496Z,34.92
2022-10-18T19:37:31.440Z,22.80
2022-10-18T19:39:59.534Z,17.00
2022-10-18T19:42:27.466Z,20.90
2022-10-18T19:44:56.999Z,15.43
2022-10-18T19:47:23.525Z,24.50
2022-10-18T19:49:50.069Z,19.90
2022-10-18T19:52:16.629Z,12.70
2022-10-18T19:54:43.149Z,11.02
2022-10-18T19:57:11.078Z,14.05
2022-10-18T19:59:37.653Z,19.33
2022-10-18T20:02:04.259Z,14.07
2022-10-18T20:04:30.969Z,19.60
2022-10-18T20:06:57.590Z,18.73
2022-10-18T20:09:24.106Z,12.85
2022-10-18T20:11:50.647Z,14.23
2022-10-18T20:14:18.534Z,11.93
2022-10-18T20:16:45.082Z,12.25
2022-10-18T20:19:11.646Z,20.52
2022-10-18T20:21:38.313Z,14.73
2022-10-18T20:24:06.065Z,16.90
2022-10-18T20:26:33.042Z,11.02
2022-10-18T20:28:59.645Z,12.02
2022-10-18T20:31:30.207Z,13.68
2022-10-18T20:33:59.024Z,11.25
2022-10-18T20:36:27.637Z,10.88
2022-10-18T20:38:54.229Z,14.35
2022-10-18T20:41:23.154Z,13.70
2022-10-18T20:43:54.286Z,10.60
2022-10-18T20:46:21.483Z,14.15
2022-10-18T20:48:50.919Z,14.40
2022-10-18T20:51:17.915Z,12.30
2022-10-18T20:53:44.819Z,11.70
2022-10-18T20:56:13.259Z,11.43
2022-10-18T20:58:41.153Z,8.70
2022-10-18T21:01:09.647Z,14.55
2022-10-18T21:03:37.317Z,13.48
2022-10-18T21:06:10.071Z,14.52
2022-10-18T21:08:36.787Z,14.02
2022-10-18T21:11:03.557Z,19.73
2022-10-18T21:13:30.575Z,9.68
2022-10-18T21:15:58.393Z,16.13
2022-10-18T21:18:25.314Z,34.55
2022-10-18T21:20:51.966Z,18.42
2022-10-18T21:23:20.674Z,16.88
2022-10-18T21:25:47.973Z,21.65
2022-10-18T21:28:15.413Z,18.88
2022-10-18T21:30:42.093Z,18.60
2022-10-18T21:33:08.696Z,12.40
2022-10-18T21:35:35.793Z,18.92
2022-10-18T21:38:02.588Z,13.15
2022-10-18T21:40:30.891Z,15.15
2022-10-18T21:42:57.820Z,13.35
2022-10-18T21:45:24.370Z,19.85
2022-10-18T21:47:50.905Z,18.80
2022-10-18T21:50:17.465Z,10.77
2022-10-18T21:52:44.010Z,14.57
2022-10-18T21:55:10.555Z,10.82
2022-10-18T21:57:38.439Z,14.38
2022-10-18T22:00:06.455Z,10.75
2022-10-18T22:02:33.227Z,12.82
2022-10-18T22:04:59.964Z,9.23
2022-10-18T22:07:26.531Z,14.88
2022-10-18T22:09:53.051Z,13.10
2022-10-18T22:12:19.620Z,14.10
2022-10-18T22:14:47.665Z,30.20
2022-10-18T22:17:14.299Z,16.08
2022-10-18T22:19:40.814Z,9.25
2022-10-18T22:22:07.365Z,21.05
2022-10-18T22:24:33.908Z,9.32
2022-10-18T22:27:00.465Z,16.83
2022-10-18T22:29:27.040Z,13.65
2022-10-18T22:31:54.956Z,15.02
2022-10-18T22:34:23.884Z,8.52
2022-10-18T22:36:50.456Z,16.88
2022-10-18T22:39:17.733Z,14.65
2022-10-18T22:41:44.733Z,16.80
2022-10-18T22:44:11.877Z,18.60
2022-10-18T22:46:38.467Z,15.43
2022-10-18T22:49:06.572Z,13.15
2022-10-18T22:54:05.312Z,10.60
2022-10-18T22:56:31.867Z,19.25
2022-10-18T22:58:58.393Z,13.10
2022-10-18T23:01:24.959Z,18.35
2022-10-18T23:03:55.483Z,12.25
2022-10-18T23:06:25.629Z,12.82
2022-10-18T23:08:53.694Z,11.20
2022-10-18T23:11:20.801Z,11.98
2022-10-18T23:13:47.485Z,19.67
2022-10-18T23:16:14.807Z,12.60
2022-10-18T23:18:41.370Z,12.73
2022-10-18T23:21:09.853Z,17.58
2022-10-18T23:23:39.161Z,12.82
2022-10-18T23:26:07.802Z,10.45
2022-10-18T23:28:35.777Z,15.25
2022-10-18T23:31:07.709Z,9.40
2022-10-18T23:36:00.647Z,12.15
2022-10-18T23:38:28.716Z,18.65
2022-10-18T23:40:57.170Z,12.18
2022-10-18T23:43:23.708Z,17.25
2022-10-18T23:45:50.376Z,18.88
2022-10-18T23:48:17.008Z,16.65
2022-10-18T23:50:43.789Z,16.02
2022-10-18T23:53:10.439Z,15.55
2022-10-18T23:55:36.961Z,16.27
2022-10-18T23:58:04.882Z,14.02
